sensor_id;sensor_type;location;lat;lon;timestamp;temperature;humidity
81726;DHT22;71135;16.738;-14.648;2023-08-20T00:00:19;18.00;69.20
81726;DHT22;71135;16.738;-14.648;2023-08-20T00:03:21;18.00;69.20
81726;DHT22;71135;16.738;-14.648;2023-08-20T00:06:59;18.00;69.20
81726;DHT22;71135;16.738;-14.648;2023-08-20T00:09:49;18.00;69.30
81726;DHT22;71135;16.738;-14.648;2023-08-20T00:12:49;17.90;69.40
81726;DHT22;71135;16.738;-14.648;2023-08-20T00:16:38;17.90;69.30
81726;DHT22;71135;16.738;-14.648;2023-08-20T00:32:45;17.70;69.60
81726;DHT22;71135;16.738;-14.648;2023-08-20T00:37:01;17.60;69.60
81726;DHT22;71135;16.738;-14.648;2023-08-20T00:42:40;17.60;69.70
81726;DHT22;71135;16.738;-14.648;2023-08-20T00:45:58;17.60;69.70
81726;DHT22;71135;16.738;-14.648;2023-08-20T00:48:55;17.80;69.80
81726;DHT22;71135;16.738;-14.648;2023-08-20T00:51:54;17.80;69.80
81726;DHT22;71135;16.738;-14.648;2023-08-20T00:55:08;17.80;69.90
81726;DHT22;71135;16.738;-14.648;2023-08-20T00:58:40;17.90;69.90
81726;DHT22;71135;16.738;-14.648;2023-08-20T01:02:09;18.00;69.80
81726;DHT22;71135;16.738;-14.648;2023-08-20T01:08:44;18.00;69.80
81726;DHT22;71135;16.738;-14.648;2023-08-20T01:12:21;18.00;69.90
81726;DHT22;71135;16.738;-14.648;2023-08-20T01:15:28;18.00;69.90
81726;DHT22;71135;16.738;-14.648;2023-08-20T01:22:49;18.00;69.80
81726;DHT22;71135;16.738;-14.648;2023-08-20T01:26:05;18.10;69.80
81726;DHT22;71135;16.738;-14.648;2023-08-20T01:29:26;18.10;69.80
81726;DHT22;71135;16.738;-14.648;2023-08-20T01:33:04;18.10;69.80
81726;DHT22;71135;16.738;-14.648;2023-08-20T01:36:17;18.10;69.70
81726;DHT22;71135;16.738;-14.648;2023-08-20T01:39:28;18.20;69.70
81726;DHT22;71135;16.738;-14.648;2023-08-20T01:42:35;18.10;69.70
81726;DHT22;71135;16.738;-14.648;2023-08-20T01:49:10;18.10;69.90
81726;DHT22;71135;16.738;-14.648;2023-08-20T01:52:21;18.00;70.00
81726;DHT22;71135;16.738;-14.648;2023-08-20T01:55:29;17.90;70.20
81726;DHT22;71135;16.738;-14.648;2023-08-20T01:58:35;17.80;70.20
81726;DHT22;71135;16.738;-14.648;2023-08-20T02:01:50;17.80;70.30
81726;DHT22;71135;16.738;-14.648;2023-08-20T02:05:00;17.80;70.40
81726;DHT22;71135;16.738;-14.648;2023-08-20T02:08:22;17.70;70.40
81726;DHT22;71135;16.738;-14.648;2023-08-20T02:11:23;17.60;70.50
81726;DHT22;71135;16.738;-14.648;2023-08-20T02:14:06;17.60;70.60
81726;DHT22;71135;16.738;-14.648;2023-08-20T02:28:17;17.50;70.70
81726;DHT22;71135;16.738;-14.648;2023-08-20T02:33:16;17.50;70.80
81726;DHT22;71135;16.738;-14.648;2023-08-20T02:39:46;17.40;70.70
81726;DHT22;71135;16.738;-14.648;2023-08-20T02:43:08;17.40;70.70
81726;DHT22;71135;16.738;-14.648;2023-08-20T02:50:48;17.30;70.70
81726;DHT22;71135;16.738;-14.648;2023-08-20T03:16:12;17.00;71.20
81726;DHT22;71135;16.738;-14.648;2023-08-20T03:19:37;17.00;71.10
81726;DHT22;71135;16.738;-14.648;2023-08-20T03:25:56;17.00;71.20
81726;DHT22;71135;16.738;-14.648;2023-08-20T03:29:44;17.00;71.20
81726;DHT22;71135;16.738;-14.648;2023-08-20T03:33:49;17.00;71.20
81726;DHT22;71135;16.738;-14.648;2023-08-20T03:40:45;17.00;71.20
81726;DHT22;71135;16.738;-14.648;2023-08-20T04:15:46;17.20;71.30
81726;DHT22;71135;16.738;-14.648;2023-08-20T04:22:44;17.20;71.30
81726;DHT22;71135;16.738;-14.648;2023-08-20T04:28:25;17.20;71.30
81726;DHT22;71135;16.738;-14.648;2023-08-20T04:43:16;17.00;71.60
81726;DHT22;71135;16.738;-14.648;2023-08-20T04:46:45;16.90;71.70
81726;DHT22;71135;16.738;-14.648;2023-08-20T04:56:31;16.90;71.80
81726;DHT22;71135;16.738;-14.648;2023-08-20T05:10:57;16.80;71.90
81726;DHT22;71135;16.738;-14.648;2023-08-20T05:21:18;16.80;72.10
81726;DHT22;71135;16.738;-14.648;2023-08-20T05:24:54;16.80;72.00
81726;DHT22;71135;16.738;-14.648;2023-08-20T05:39:35;16.90;72.10
81726;DHT22;71135;16.738;-14.648;2023-08-20T06:04:53;17.40;72.20
81726;DHT22;71135;16.738;-14.648;2023-08-20T06:12:30;17.50;72.20
81726;DHT22;71135;16.738;-14.648;2023-08-20T06:19:18;17.70;72.10
81726;DHT22;71135;16.738;-14.648;2023-08-20T06:26:07;17.90;72.10
81726;DHT22;71135;16.738;-14.648;2023-08-20T06:29:31;18.00;72.10
81726;DHT22;71135;16.738;-14.648;2023-08-20T06:40:35;18.20;72.10
81726;DHT22;71135;16.738;-14.648;2023-08-20T06:47:20;18.40;72.00
81726;DHT22;71135;16.738;-14.648;2023-08-20T06:50:53;18.40;72.00
81726;DHT22;71135;16.738;-14.648;2023-08-20T06:54:06;18.60;71.90
81726;DHT22;71135;16.738;-14.648;2023-08-20T06:57:10;18.70;72.00
81726;DHT22;71135;16.738;-14.648;2023-08-20T07:00:00;18.90;71.90
81726;DHT22;71135;16.738;-14.648;2023-08-20T07:03:30;19.00;71.90
81726;DHT22;71135;16.738;-14.648;2023-08-20T07:10:12;19.40;71.60
81726;DHT22;71135;16.738;-14.648;2023-08-20T07:13:56;19.50;71.40
81726;DHT22;71135;16.738;-14.648;2023-08-20T07:20:50;19.90;71.00
81726;DHT22;71135;16.738;-14.648;2023-08-20T07:23:44;20.10;70.70
81726;DHT22;71135;16.738;-14.648;2023-08-20T07:26:13;20.30;70.50
81726;DHT22;71135;16.738;-14.648;2023-08-20T07:28:49;20.40;70.40
81726;DHT22;71135;16.738;-14.648;2023-08-20T07:31:39;20.50;70.30
81726;DHT22;71135;16.738;-14.648;2023-08-20T07:34:16;20.70;69.80
81726;DHT22;71135;16.738;-14.648;2023-08-20T07:36:57;20.80;69.60
81726;DHT22;71135;16.738;-14.648;2023-08-20T07:39:40;20.90;69.40
81726;DHT22;71135;16.738;-14.648;2023-08-20T07:45:28;21.10;68.70
81726;DHT22;71135;16.738;-14.648;2023-08-20T07:48:32;21.50;68.20
81726;DHT22;71135;16.738;-14.648;2023-08-20T07:52:06;21.70;67.70
81726;DHT22;71135;16.738;-14.648;2023-08-20T07:56:09;21.70;67.60
81726;DHT22;71135;16.738;-14.648;2023-08-20T07:58:36;21.70;67.60
81726;DHT22;71135;16.738;-14.648;2023-08-20T08:01:41;21.90;67.60
81726;DHT22;71135;16.738;-14.648;2023-08-20T08:04:41;22.20;67.00
81726;DHT22;71135;16.738;-14.648;2023-08-20T08:07:54;22.60;65.90
81726;DHT22;71135;16.738;-14.648;2023-08-20T08:14:47;22.50;65.80
81726;DHT22;71135;16.738;-14.648;2023-08-20T08:18:58;22.50;66.20
81726;DHT22;71135;16.738;-14.648;2023-08-20T08:21:56;22.40;66.20
81726;DHT22;71135;16.738;-14.648;2023-08-20T08:37:17;23.10;65.20
81726;DHT22;71135;16.738;-14.648;2023-08-20T08:47:22;25.40;62.00
81726;DHT22;71135;16.738;-14.648;2023-08-20T08:50:23;27.90;58.60
81726;DHT22;71135;16.738;-14.648;2023-08-20T08:53:15;30.50;54.00
81726;DHT22;71135;16.738;-14.648;2023-08-20T08:56:14;32.60;50.90
81726;DHT22;71135;16.738;-14.648;2023-08-20T08:58:48;33.90;48.70
81726;DHT22;71135;16.738;-14.648;2023-08-20T09:01:26;34.00;48.00
81726;DHT22;71135;16.738;-14.648;2023-08-20T09:04:03;33.30;48.90
81726;DHT22;71135;16.738;-14.648;2023-08-20T09:06:56;32.40;49.90
81726;DHT22;71135;16.738;-14.648;2023-08-20T09:09:47;32.00;50.30
81726;DHT22;71135;16.738;-14.648;2023-08-20T09:13:48;31.70;50.50
81726;DHT22;71135;16.738;-14.648;2023-08-20T09:16:11;30.80;51.20
81726;DHT22;71135;16.738;-14.648;2023-08-20T09:19:11;29.70;53.00
81726;DHT22;71135;16.738;-14.648;2023-08-20T09:22:03;29.40;53.60
81726;DHT22;71135;16.738;-14.648;2023-08-20T09:24:52;30.30;51.90
81726;DHT22;71135;16.738;-14.648;2023-08-20T09:27:22;31.60;50.20
81726;DHT22;71135;16.738;-14.648;2023-08-20T09:29:55;32.50;48.90
81726;DHT22;71135;16.738;-14.648;2023-08-20T09:32:27;33.40;48.20
81726;DHT22;71135;16.738;-14.648;2023-08-20T09:35:05;34.80;46.70
81726;DHT22;71135;16.738;-14.648;2023-08-20T09:37:54;36.50;44.80
81726;DHT22;71135;16.738;-14.648;2023-08-20T09:40:30;37.90;43.00
81726;DHT22;71135;16.738;-14.648;2023-08-20T09:43:22;39.20;41.20
81726;DHT22;71135;16.738;-14.648;2023-08-20T09:46:07;40.30;40.00
81726;DHT22;71135;16.738;-14.648;2023-08-20T09:48:58;40.90;38.90
81726;DHT22;71135;16.738;-14.648;2023-08-20T09:52:06;40.80;38.60
81726;DHT22;71135;16.738;-14.648;2023-08-20T10:09:45;34.80;43.50
81726;DHT22;71135;16.738;-14.648;2023-08-20T10:16:50;32.30;46.60
81726;DHT22;71135;16.738;-14.648;2023-08-20T10:20:36;33.20;45.80
81726;DHT22;71135;16.738;-14.648;2023-08-20T10:23:49;34.40;44.60
81726;DHT22;71135;16.738;-14.648;2023-08-20T10:26:36;35.00;44.10
81726;DHT22;71135;16.738;-14.648;2023-08-20T10:29:36;34.90;44.00
81726;DHT22;71135;16.738;-14.648;2023-08-20T10:32:13;34.70;43.90
81726;DHT22;71135;16.738;-14.648;2023-08-20T10:35:26;35.00;43.50
81726;DHT22;71135;16.738;-14.648;2023-08-20T10:38:17;35.70;42.90
81726;DHT22;71135;16.738;-14.648;2023-08-20T10:41:09;35.80;42.70
81726;DHT22;71135;16.738;-14.648;2023-08-20T10:43:56;36.40;42.20
81726;DHT22;71135;16.738;-14.648;2023-08-20T10:48:15;36.90;41.00
81726;DHT22;71135;16.738;-14.648;2023-08-20T10:53:13;36.50;41.60
81726;DHT22;71135;16.738;-14.648;2023-08-20T10:56:17;37.20;41.10
81726;DHT22;71135;16.738;-14.648;2023-08-20T10:59:08;38.00;40.30
81726;DHT22;71135;16.738;-14.648;2023-08-20T11:01:43;39.00;39.30
81726;DHT22;71135;16.738;-14.648;2023-08-20T11:04:36;39.80;38.90
81726;DHT22;71135;16.738;-14.648;2023-08-20T11:07:20;41.00;37.80
81726;DHT22;71135;16.738;-14.648;2023-08-20T11:10:15;42.10;35.80
81726;DHT22;71135;16.738;-14.648;2023-08-20T11:12:58;43.00;35.20
81726;DHT22;71135;16.738;-14.648;2023-08-20T11:15:32;43.90;34.50
81726;DHT22;71135;16.738;-14.648;2023-08-20T11:18:08;44.50;33.80
81726;DHT22;71135;16.738;-14.648;2023-08-20T11:20:42;45.00;33.30
81726;DHT22;71135;16.738;-14.648;2023-08-20T11:23:20;45.30;33.00
81726;DHT22;71135;16.738;-14.648;2023-08-20T11:26:12;45.60;33.40
81726;DHT22;71135;16.738;-14.648;2023-08-20T11:28:45;45.70;32.40
81726;DHT22;71135;16.738;-14.648;2023-08-20T11:31:45;45.70;32.10
81726;DHT22;71135;16.738;-14.648;2023-08-20T11:34:25;45.60;32.10
81726;DHT22;71135;16.738;-14.648;2023-08-20T11:37:07;45.60;32.00
81726;DHT22;71135;16.738;-14.648;2023-08-20T11:39:52;45.50;32.00
81726;DHT22;71135;16.738;-14.648;2023-08-20T11:42:39;45.50;31.70
81726;DHT22;71135;16.738;-14.648;2023-08-20T11:45:24;45.30;32.10
81726;DHT22;71135;16.738;-14.648;2023-08-20T11:48:09;45.20;32.60
81726;DHT22;71135;16.738;-14.648;2023-08-20T11:50:45;45.10;32.20
81726;DHT22;71135;16.738;-14.648;2023-08-20T11:53:20;44.90;32.20
81726;DHT22;71135;16.738;-14.648;2023-08-20T11:55:56;44.60;31.90
81726;DHT22;71135;16.738;-14.648;2023-08-20T11:58:33;44.20;32.40
81726;DHT22;71135;16.738;-14.648;2023-08-20T12:01:22;43.90;33.00
81726;DHT22;71135;16.738;-14.648;2023-08-20T12:04:14;43.30;32.90
81726;DHT22;71135;16.738;-14.648;2023-08-20T12:07:08;42.80;33.40
81726;DHT22;71135;16.738;-14.648;2023-08-20T12:09:56;42.40;33.70
81726;DHT22;71135;16.738;-14.648;2023-08-20T12:12:34;42.00;33.80
81726;DHT22;71135;16.738;-14.648;2023-08-20T12:15:14;41.60;34.30
81726;DHT22;71135;16.738;-14.648;2023-08-20T12:18:16;41.00;34.40
81726;DHT22;71135;16.738;-14.648;2023-08-20T12:21:16;40.20;35.20
81726;DHT22;71135;16.738;-14.648;2023-08-20T12:23:56;39.40;36.00
81726;DHT22;71135;16.738;-14.648;2023-08-20T12:29:54;37.50;37.80
81726;DHT22;71135;16.738;-14.648;2023-08-20T12:32:45;36.10;38.90
81726;DHT22;71135;16.738;-14.648;2023-08-20T12:42:14;33.40;42.30
81726;DHT22;71135;16.738;-14.648;2023-08-20T12:45:35;32.70;43.10
81726;DHT22;71135;16.738;-14.648;2023-08-20T12:48:52;32.10;43.70
81726;DHT22;71135;16.738;-14.648;2023-08-20T12:51:55;31.70;44.40
81726;DHT22;71135;16.738;-14.648;2023-08-20T12:57:00;31.50;45.30
81726;DHT22;71135;16.738;-14.648;2023-08-20T12:58:07;31.40;44.80
81726;DHT22;71135;16.738;-14.648;2023-08-20T13:01:21;31.30;44.80
81726;DHT22;71135;16.738;-14.648;2023-08-20T13:04:23;31.30;45.10
81726;DHT22;71135;16.738;-14.648;2023-08-20T13:07:05;31.40;45.00
81726;DHT22;71135;16.738;-14.648;2023-08-20T13:10:19;31.40;44.70
81726;DHT22;71135;16.738;-14.648;2023-08-20T13:13:27;31.40;44.80
81726;DHT22;71135;16.738;-14.648;2023-08-20T13:16:22;31.30;44.80
81726;DHT22;71135;16.738;-14.648;2023-08-20T13:19:21;31.20;44.60
81726;DHT22;71135;16.738;-14.648;2023-08-20T13:21:59;31.10;44.90
81726;DHT22;71135;16.738;-14.648;2023-08-20T13:24:45;31.00;45.60
81726;DHT22;71135;16.738;-14.648;2023-08-20T13:27:30;31.00;45.70
81726;DHT22;71135;16.738;-14.648;2023-08-20T13:30:42;30.90;45.90
81726;DHT22;71135;16.738;-14.648;2023-08-20T13:33:41;30.90;45.50
81726;DHT22;71135;16.738;-14.648;2023-08-20T13:39:33;30.80;45.70
81726;DHT22;71135;16.738;-14.648;2023-08-20T13:42:12;30.60;45.90
81726;DHT22;71135;16.738;-14.648;2023-08-20T13:45:04;30.50;46.40
81726;DHT22;71135;16.738;-14.648;2023-08-20T13:47:39;30.30;46.50
81726;DHT22;71135;16.738;-14.648;2023-08-20T13:50:28;30.30;46.90
81726;DHT22;71135;16.738;-14.648;2023-08-20T13:53:22;30.30;46.60
81726;DHT22;71135;16.738;-14.648;2023-08-20T13:56:09;30.30;47.10
81726;DHT22;71135;16.738;-14.648;2023-08-20T14:02:22;30.20;47.20
81726;DHT22;71135;16.738;-14.648;2023-08-20T14:05:33;30.10;47.00
81726;DHT22;71135;16.738;-14.648;2023-08-20T14:14:58;29.90;47.50
81726;DHT22;71135;16.738;-14.648;2023-08-20T14:24:26;29.70;48.30
81726;DHT22;71135;16.738;-14.648;2023-08-20T14:33:46;29.40;48.40
81726;DHT22;71135;16.738;-14.648;2023-08-20T14:36:27;29.30;49.70
81726;DHT22;71135;16.738;-14.648;2023-08-20T14:39:18;29.30;49.80
81726;DHT22;71135;16.738;-14.648;2023-08-20T14:42:05;29.30;49.70
81726;DHT22;71135;16.738;-14.648;2023-08-20T14:44:53;29.20;49.50
81726;DHT22;71135;16.738;-14.648;2023-08-20T14:48:00;29.20;49.50
81726;DHT22;71135;16.738;-14.648;2023-08-20T14:51:04;29.10;49.40
81726;DHT22;71135;16.738;-14.648;2023-08-20T14:53:41;28.90;49.30
81726;DHT22;71135;16.738;-14.648;2023-08-20T15:00:00;28.50;49.70
81726;DHT22;71135;16.738;-14.648;2023-08-20T15:02:46;28.50;49.40
81726;DHT22;71135;16.738;-14.648;2023-08-20T15:05:48;28.30;50.00
81726;DHT22;71135;16.738;-14.648;2023-08-20T15:09:02;28.30;49.70
81726;DHT22;71135;16.738;-14.648;2023-08-20T15:11:52;28.10;50.00
81726;DHT22;71135;16.738;-14.648;2023-08-20T15:14:26;28.10;50.00
81726;DHT22;71135;16.738;-14.648;2023-08-20T15:17:12;28.10;50.40
81726;DHT22;71135;16.738;-14.648;2023-08-20T15:19:52;28.10;50.00
81726;DHT22;71135;16.738;-14.648;2023-08-20T15:22:26;28.10;50.50
81726;DHT22;71135;16.738;-14.648;2023-08-20T15:25:05;28.00;50.30
81726;DHT22;71135;16.738;-14.648;2023-08-20T15:27:38;28.00;50.20
81726;DHT22;71135;16.738;-14.648;2023-08-20T15:30:15;27.90;50.10
81726;DHT22;71135;16.738;-14.648;2023-08-20T15:32:59;27.90;49.50
81726;DHT22;71135;16.738;-14.648;2023-08-20T15:35:32;27.80;49.70
81726;DHT22;71135;16.738;-14.648;2023-08-20T15:38:02;27.80;50.00
81726;DHT22;71135;16.738;-14.648;2023-08-20T15:40:37;27.80;49.70
81726;DHT22;71135;16.738;-14.648;2023-08-20T15:43:07;27.80;50.00
81726;DHT22;71135;16.738;-14.648;2023-08-20T15:45:38;27.80;49.90
81726;DHT22;71135;16.738;-14.648;2023-08-20T15:48:13;27.80;50.20
81726;DHT22;71135;16.738;-14.648;2023-08-20T15:50:51;27.80;50.00
81726;DHT22;71135;16.738;-14.648;2023-08-20T15:53:25;27.70;50.00
81726;DHT22;71135;16.738;-14.648;2023-08-20T15:56:09;27.60;50.00
81726;DHT22;71135;16.738;-14.648;2023-08-20T15:58:44;27.50;50.20
81726;DHT22;71135;16.738;-14.648;2023-08-20T16:01:21;27.30;50.40
81726;DHT22;71135;16.738;-14.648;2023-08-20T16:03:57;27.20;50.80
81726;DHT22;71135;16.738;-14.648;2023-08-20T16:06:29;27.10;51.00
81726;DHT22;71135;16.738;-14.648;2023-08-20T16:09:09;27.10;51.20
81726;DHT22;71135;16.738;-14.648;2023-08-20T16:11:47;27.10;51.60
81726;DHT22;71135;16.738;-14.648;2023-08-20T16:14:19;27.10;51.70
81726;DHT22;71135;16.738;-14.648;2023-08-20T16:16:58;27.00;51.30
81726;DHT22;71135;16.738;-14.648;2023-08-20T16:19:33;27.00;51.50
81726;DHT22;71135;16.738;-14.648;2023-08-20T16:22:08;27.00;51.70
81726;DHT22;71135;16.738;-14.648;2023-08-20T16:24:41;26.90;51.70
81726;DHT22;71135;16.738;-14.648;2023-08-20T16:27:13;26.90;51.70
81726;DHT22;71135;16.738;-14.648;2023-08-20T16:29:47;26.90;51.90
81726;DHT22;71135;16.738;-14.648;2023-08-20T16:32:27;26.80;52.10
81726;DHT22;71135;16.738;-14.648;2023-08-20T16:34:56;26.80;52.00
81726;DHT22;71135;16.738;-14.648;2023-08-20T16:37:31;26.60;52.40
81726;DHT22;71135;16.738;-14.648;2023-08-20T16:40:05;26.50;52.50
81726;DHT22;71135;16.738;-14.648;2023-08-20T16:42:41;26.40;52.70
81726;DHT22;71135;16.738;-14.648;2023-08-20T16:45:24;26.40;53.10
81726;DHT22;71135;16.738;-14.648;2023-08-20T16:47:57;26.30;53.00
81726;DHT22;71135;16.738;-14.648;2023-08-20T16:50:37;26.20;52.90
81726;DHT22;71135;16.738;-14.648;2023-08-20T16:53:12;26.10;52.90
81726;DHT22;71135;16.738;-14.648;2023-08-20T16:55:42;26.10;53.00
81726;DHT22;71135;16.738;-14.648;2023-08-20T16:58:27;26.00;53.20
81726;DHT22;71135;16.738;-14.648;2023-08-20T17:00:58;25.90;53.40
81726;DHT22;71135;16.738;-14.648;2023-08-20T17:03:28;25.80;53.40
81726;DHT22;71135;16.738;-14.648;2023-08-20T17:06:01;25.80;53.20
81726;DHT22;71135;16.738;-14.648;2023-08-20T17:08:32;25.70;53.30
81726;DHT22;71135;16.738;-14.648;2023-08-20T17:11:05;25.60;53.90
81726;DHT22;71135;16.738;-14.648;2023-08-20T17:13:40;25.50;53.90
81726;DHT22;71135;16.738;-14.648;2023-08-20T17:16:12;25.50;53.90
81726;DHT22;71135;16.738;-14.648;2023-08-20T17:18:47;25.40;54.00
81726;DHT22;71135;16.738;-14.648;2023-08-20T17:21:19;25.40;53.90
81726;DHT22;71135;16.738;-14.648;2023-08-20T17:23:49;25.40;53.80
81726;DHT22;71135;16.738;-14.648;2023-08-20T17:26:21;25.50;53.90
81726;DHT22;71135;16.738;-14.648;2023-08-20T17:28:53;25.50;54.00
81726;DHT22;71135;16.738;-14.648;2023-08-20T17:31:32;25.50;53.80
81726;DHT22;71135;16.738;-14.648;2023-08-20T17:34:01;25.40;53.60
81726;DHT22;71135;16.738;-14.648;2023-08-20T17:36:32;25.40;53.70
81726;DHT22;71135;16.738;-14.648;2023-08-20T17:39:01;25.40;54.00
81726;DHT22;71135;16.738;-14.648;2023-08-20T17:41:33;25.40;54.30
81726;DHT22;71135;16.738;-14.648;2023-08-20T17:44:05;25.30;54.10
81726;DHT22;71135;16.738;-14.648;2023-08-20T17:46:44;25.30;54.10
81726;DHT22;71135;16.738;-14.648;2023-08-20T17:49:14;25.20;54.10
81726;DHT22;71135;16.738;-14.648;2023-08-20T17:51:46;25.10;54.20
81726;DHT22;71135;16.738;-14.648;2023-08-20T17:54:21;25.00;54.50
81726;DHT22;71135;16.738;-14.648;2023-08-20T17:56:53;25.00;54.70
81726;DHT22;71135;16.738;-14.648;2023-08-20T17:59:25;24.80;54.70
81726;DHT22;71135;16.738;-14.648;2023-08-20T18:01:58;24.70;55.00
81726;DHT22;71135;16.738;-14.648;2023-08-20T18:04:34;24.60;54.80
81726;DHT22;71135;16.738;-14.648;2023-08-20T18:07:06;24.50;55.10
81726;DHT22;71135;16.738;-14.648;2023-08-20T18:09:38;24.40;55.50
81726;DHT22;71135;16.738;-14.648;2023-08-20T18:12:10;24.40;55.50
81726;DHT22;71135;16.738;-14.648;2023-08-20T18:14:43;24.40;55.60
81726;DHT22;71135;16.738;-14.648;2023-08-20T18:17:13;24.40;55.80
81726;DHT22;71135;16.738;-14.648;2023-08-20T18:19:42;24.40;55.90
81726;DHT22;71135;16.738;-14.648;2023-08-20T18:22:18;24.30;56.00
81726;DHT22;71135;16.738;-14.648;2023-08-20T18:24:48;24.20;56.30
81726;DHT22;71135;16.738;-14.648;2023-08-20T18:27:17;24.20;56.30
81726;DHT22;71135;16.738;-14.648;2023-08-20T18:29:49;24.20;56.60
81726;DHT22;71135;16.738;-14.648;2023-08-20T18:32:18;24.00;56.70
81726;DHT22;71135;16.738;-14.648;2023-08-20T18:34:48;24.00;57.10
81726;DHT22;71135;16.738;-14.648;2023-08-20T18:37:19;23.90;57.20
81726;DHT22;71135;16.738;-14.648;2023-08-20T18:39:49;23.80;57.50
81726;DHT22;71135;16.738;-14.648;2023-08-20T18:42:18;23.70;57.40
81726;DHT22;71135;16.738;-14.648;2023-08-20T18:44:50;23.60;57.50
81726;DHT22;71135;16.738;-14.648;2023-08-20T18:47:20;23.60;57.80
81726;DHT22;71135;16.738;-14.648;2023-08-20T18:49:50;23.50;58.00
81726;DHT22;71135;16.738;-14.648;2023-08-20T18:52:20;23.40;58.20
81726;DHT22;71135;16.738;-14.648;2023-08-20T18:54:54;23.40;58.20
81726;DHT22;71135;16.738;-14.648;2023-08-20T18:57:24;23.30;58.40
81726;DHT22;71135;16.738;-14.648;2023-08-20T19:00:00;23.30;58.40
81726;DHT22;71135;16.738;-14.648;2023-08-20T19:02:33;23.20;58.50
81726;DHT22;71135;16.738;-14.648;2023-08-20T19:05:08;23.20;58.70
81726;DHT22;71135;16.738;-14.648;2023-08-20T19:07:45;23.10;58.80
81726;DHT22;71135;16.738;-14.648;2023-08-20T19:10:36;23.10;59.20
81726;DHT22;71135;16.738;-14.648;2023-08-20T19:13:06;23.00;59.40
81726;DHT22;71135;16.738;-14.648;2023-08-20T19:15:49;22.90;59.30
81726;DHT22;71135;16.738;-14.648;2023-08-20T19:18:19;22.80;59.10
81726;DHT22;71135;16.738;-14.648;2023-08-20T19:20:50;22.70;59.40
81726;DHT22;71135;16.738;-14.648;2023-08-20T19:23:21;22.60;59.60
81726;DHT22;71135;16.738;-14.648;2023-08-20T19:25:55;22.60;59.90
81726;DHT22;71135;16.738;-14.648;2023-08-20T19:28:30;22.50;60.20
81726;DHT22;71135;16.738;-14.648;2023-08-20T19:31:16;22.50;60.30
81726;DHT22;71135;16.738;-14.648;2023-08-20T19:33:49;22.50;60.50
81726;DHT22;71135;16.738;-14.648;2023-08-20T19:36:23;22.30;60.60
81726;DHT22;71135;16.738;-14.648;2023-08-20T19:38:57;22.30;60.60
81726;DHT22;71135;16.738;-14.648;2023-08-20T19:41:27;22.20;60.80
81726;DHT22;71135;16.738;-14.648;2023-08-20T19:43:56;22.20;61.00
81726;DHT22;71135;16.738;-14.648;2023-08-20T19:46:28;22.10;61.20
81726;DHT22;71135;16.738;-14.648;2023-08-20T19:49:00;22.10;61.30
81726;DHT22;71135;16.738;-14.648;2023-08-20T19:51:37;22.00;61.30
81726;DHT22;71135;16.738;-14.648;2023-08-20T19:54:06;22.00;61.40
81726;DHT22;71135;16.738;-14.648;2023-08-20T19:56:38;22.00;61.30
81726;DHT22;71135;16.738;-14.648;2023-08-20T19:59:08;22.00;61.30
81726;DHT22;71135;16.738;-14.648;2023-08-20T20:01:48;21.90;61.30
81726;DHT22;71135;16.738;-14.648;2023-08-20T20:04:19;21.90;61.40
81726;DHT22;71135;16.738;-14.648;2023-08-20T20:06:51;21.90;61.40
81726;DHT22;71135;16.738;-14.648;2023-08-20T20:09:23;21.80;61.40
81726;DHT22;71135;16.738;-14.648;2023-08-20T20:12:02;21.70;61.20
81726;DHT22;71135;16.738;-14.648;2023-08-20T20:14:36;21.70;61.50
81726;DHT22;71135;16.738;-14.648;2023-08-20T20:17:15;21.70;61.60
81726;DHT22;71135;16.738;-14.648;2023-08-20T20:19:50;21.50;61.40
81726;DHT22;71135;16.738;-14.648;2023-08-20T20:22:24;21.50;61.80
81726;DHT22;71135;16.738;-14.648;2023-08-20T20:24:56;21.50;62.00
81726;DHT22;71135;16.738;-14.648;2023-08-20T20:27:30;21.40;62.20
81726;DHT22;71135;16.738;-14.648;2023-08-20T20:30:02;21.30;62.40
81726;DHT22;71135;16.738;-14.648;2023-08-20T20:32:35;21.30;62.60
81726;DHT22;71135;16.738;-14.648;2023-08-20T20:35:09;21.20;62.90
81726;DHT22;71135;16.738;-14.648;2023-08-20T20:37:39;21.10;63.00
81726;DHT22;71135;16.738;-14.648;2023-08-20T20:40:09;21.10;62.90
81726;DHT22;71135;16.738;-14.648;2023-08-20T20:42:46;21.00;63.20
81726;DHT22;71135;16.738;-14.648;2023-08-20T20:45:15;20.90;63.30
81726;DHT22;71135;16.738;-14.648;2023-08-20T20:47:54;20.90;63.30
81726;DHT22;71135;16.738;-14.648;2023-08-20T20:50:31;20.80;63.50
81726;DHT22;71135;16.738;-14.648;2023-08-20T20:53:06;20.80;63.70
81726;DHT22;71135;16.738;-14.648;2023-08-20T20:55:40;20.70;63.70
81726;DHT22;71135;16.738;-14.648;2023-08-20T20:58:09;20.70;63.90
81726;DHT22;71135;16.738;-14.648;2023-08-20T21:00:39;20.60;64.00
81726;DHT22;71135;16.738;-14.648;2023-08-20T21:03:15;20.60;64.20
81726;DHT22;71135;16.738;-14.648;2023-08-20T21:05:45;20.50;64.40
81726;DHT22;71135;16.738;-14.648;2023-08-20T21:08:16;20.50;64.60
81726;DHT22;71135;16.738;-14.648;2023-08-20T21:10:46;20.50;64.70
81726;DHT22;71135;16.738;-14.648;2023-08-20T21:13:16;20.40;64.30
81726;DHT22;71135;16.738;-14.648;2023-08-20T21:15:46;20.30;64.50
81726;DHT22;71135;16.738;-14.648;2023-08-20T21:18:22;20.30;64.70
81726;DHT22;71135;16.738;-14.648;2023-08-20T21:20:54;20.30;64.90
81726;DHT22;71135;16.738;-14.648;2023-08-20T21:23:28;20.30;65.00
81726;DHT22;71135;16.738;-14.648;2023-08-20T21:25:59;20.30;65.10
81726;DHT22;71135;16.738;-14.648;2023-08-20T21:28:40;20.30;65.30
81726;DHT22;71135;16.738;-14.648;2023-08-20T21:31:22;20.20;65.50
81726;DHT22;71135;16.738;-14.648;2023-08-20T21:34:07;20.20;65.50
81726;DHT22;71135;16.738;-14.648;2023-08-20T21:36:57;20.10;65.60
81726;DHT22;71135;16.738;-14.648;2023-08-20T21:39:49;20.10;65.70
81726;DHT22;71135;16.738;-14.648;2023-08-20T21:42:43;20.00;65.60
81726;DHT22;71135;16.738;-14.648;2023-08-20T21:45:30;20.00;65.70
81726;DHT22;71135;16.738;-14.648;2023-08-20T21:48:16;20.00;65.90
81726;DHT22;71135;16.738;-14.648;2023-08-20T21:51:17;20.00;65.90
81726;DHT22;71135;16.738;-14.648;2023-08-20T21:53:56;19.90;66.00
81726;DHT22;71135;16.738;-14.648;2023-08-20T21:56:35;19.90;66.00
81726;DHT22;71135;16.738;-14.648;2023-08-20T21:59:14;19.80;66.00
81726;DHT22;71135;16.738;-14.648;2023-08-20T22:01:46;19.70;66.10
81726;DHT22;71135;16.738;-14.648;2023-08-20T22:04:30;19.70;66.20
81726;DHT22;71135;16.738;-14.648;2023-08-20T22:07:25;19.50;66.50
81726;DHT22;71135;16.738;-14.648;2023-08-20T22:10:10;19.50;66.70
81726;DHT22;71135;16.738;-14.648;2023-08-20T22:13:23;19.40;66.90
81726;DHT22;71135;16.738;-14.648;2023-08-20T22:16:19;19.30;67.00
81726;DHT22;71135;16.738;-14.648;2023-08-20T22:19:10;19.30;67.10